Terminal Aerodrome Forecast
Issued by NWS Kansas City/Pleasant Hill, MO

Home | Current Version | Previous Version | Text Only | Print | Product List | Glossary On
Versions: 1 2 3 4 5 6 7 8 9 10 11 12 13 14 15
830
FTUS43 KEAX 271602 AAB
TAFMCI
TAF AMD
KMCI 271602Z 2716/2812 10009KT P6SM BKN060
      TEMPO 2717/2719 5SM -TSRA BKN030CB
     FM280300 36008KT P6SM OVC025
     FM280900 33009KT P6SM OVC035=

USA.gov is the U.S. government's official web portal to all federal, state and local government web resources and services.